Time;durP1;ratioP1;P1;durP2;ratioP2;P2;SDS_P1;SDS_P2;PMS_P1;PMS_P2;Temp;Humidity;BMP_temperature;BMP_pressure;BME280_temperature;BME280_humidity;BME280_pressure;Samples;Min_cycle;Max_cycle;Signal;HPM_P1;HPM_P2
2023/04/05 00:04:59;;;;;;;3.92;1.67;;;;;;;-1.23;100.00;99090.50;15362309;19;19999;-84
2023/04/05 00:10:27;;;;;;;2.78;1.90;;;;;;;-1.31;100.00;99096.13;15373472;19;20043;-84
2023/04/05 00:15:59;;;;;;;3.92;2.15;;;;;;;-1.35;100.00;99084.81;15312621;19;20011;-85
2023/04/05 00:21:26;;;;;;;2.78;2.00;;;;;;;-1.44;100.00;99090.53;15309843;19;20094;-85
2023/04/05 00:26:53;;;;;;;4.15;2.08;;;;;;;-1.51;100.00;99074.09;15309511;19;20014;-84
2023/04/05 00:32:24;;;;;;;3.90;1.90;;;;;;;-1.57;100.00;99083.16;15308066;19;20351;-85
2023/04/05 00:37:50;;;;;;;3.78;1.90;;;;;;;-1.66;100.00;99078.28;15311568;19;20078;-85
2023/04/05 00:43:17;;;;;;;3.58;2.13;;;;;;;-1.70;100.00;99076.69;15314408;19;20030;-85
2023/04/05 00:48:48;;;;;;;2.15;1.75;;;;;;;-1.74;100.00;99072.47;15315379;19;20070;-86
2023/04/05 00:54:15;;;;;;;3.15;2.00;;;;;;;-1.80;100.00;99068.31;15320206;19;20018;-86
2023/04/05 00:59:40;;;;;;;2.50;1.90;;;;;;;-1.78;100.00;99060.31;15317289;19;20024;-85
2023/04/05 01:05:14;;;;;;;2.75;2.10;;;;;;;-1.81;100.00;99063.09;15331010;19;20029;-84
2023/04/05 01:10:51;;;;;;;5.57;2.40;;;;;;;-1.80;100.00;99054.25;15305965;19;20018;-84
2023/04/05 01:16:20;;;;;;;3.45;2.10;;;;;;;-1.83;100.00;99046.47;15312836;19;20090;-84
2023/04/05 01:22:15;;;;;;;3.50;2.28;;;;;;;-1.86;100.00;99052.72;15314320;19;20354;-85
2023/04/05 01:28:02;;;;;;;2.97;2.13;;;;;;;-1.91;100.00;99055.56;15303818;19;20018;-85
2023/04/05 01:33:38;;;;;;;5.18;2.20;;;;;;;-1.97;100.00;99050.56;15320819;19;20022;-86
2023/04/05 01:39:06;;;;;;;2.92;1.90;;;;;;;-1.99;100.00;99049.78;15304864;19;20018;-86
2023/04/05 01:44:31;;;;;;;2.67;1.90;;;;;;;-2.01;100.00;99041.06;15303237;19;20015;-83
2023/04/05 01:50:00;;;;;;;4.43;2.10;;;;;;;-2.05;100.00;99039.47;15302143;19;20528;-85
2023/04/05 01:55:32;;;;;;;4.75;2.13;;;;;;;-2.06;100.00;99045.69;15295952;19;20666;-85
2023/04/05 02:00:58;;;;;;;2.88;2.20;;;;;;;-2.05;100.00;99031.53;15300780;19;20083;-86
2023/04/05 02:06:26;;;;;;;3.50;2.15;;;;;;;-2.04;100.00;99038.53;15312893;19;20010;-86
2023/04/05 02:12:00;;;;;;;3.70;2.20;;;;;;;-2.05;100.00;99039.47;15335916;19;20007;-89
2023/04/05 02:17:32;;;;;;;3.45;2.28;;;;;;;-2.09;100.00;99043.19;15370104;19;20006;-86
2023/04/05 02:23:01;;;;;;;2.83;1.98;;;;;;;-2.08;100.00;99034.34;15365356;19;20015;-85
2023/04/05 02:28:27;;;;;;;3.35;2.00;;;;;;;-2.07;100.00;99033.44;15351389;19;20010;-85
2023/04/05 02:33:56;;;;;;;3.47;2.30;;;;;;;-2.06;100.00;99037.78;15356314;19;20021;-87
2023/04/05 02:39:27;;;;;;;2.92;2.08;;;;;;;-2.05;100.00;99031.53;15355441;19;20013;-86
2023/04/05 02:44:57;;;;;;;8.23;2.50;;;;;;;-2.01;100.00;99027.84;15323608;19;20078;-86
2023/04/05 02:50:25;;;;;;;4.50;2.15;;;;;;;-2.06;100.00;99025.44;15300568;19;20526;-85
2023/04/05 02:56:04;;;;;;;5.90;2.58;;;;;;;-2.08;100.00;99023.78;15330127;19;20354;-86
2023/04/05 03:01:35;;;;;;;3.92;2.33;;;;;;;-2.05;100.00;99026.28;15300189;19;20010;-86
2023/04/05 03:07:09;;;;;;;3.28;2.22;;;;;;;-2.05;100.00;99021.88;15298358;19;20406;-86
2023/04/05 03:12:37;;;;;;;3.22;2.35;;;;;;;-2.06;100.00;99014.88;15296042;19;20039;-85
2023/04/05 03:18:07;;;;;;;4.22;2.50;;;;;;;-1.98;100.00;99024.22;15308791;19;20042;-86
2023/04/05 03:23:35;;;;;;;4.57;2.08;;;;;;;-1.98;100.00;99029.50;15371462;19;20017;-86
2023/04/05 03:29:15;;;;;;;3.55;2.13;;;;;;;-1.95;100.00;99014.41;15306612;19;20448;-85
2023/04/05 03:34:46;;;;;;;3.85;2.60;;;;;;;-1.89;100.00;99016.75;15345748;19;20467;-85
2023/04/05 03:40:11;;;;;;;4.20;2.20;;;;;;;-1.87;100.00;99024.59;15306004;19;20138;-86
2023/04/05 03:45:40;;;;;;;4.90;2.47;;;;;;;-1.87;100.00;99020.19;15311339;19;20308;-84
2023/04/05 03:51:06;;;;;;;3.15;2.22;;;;;;;-1.86;100.00;99029.84;15290892;19;20027;-84
2023/04/05 03:56:41;;;;;;;4.32;2.45;;;;;;;-1.86;100.00;99024.56;15289419;19;20078;-84
2023/04/05 04:02:13;;;;;;;2.85;2.38;;;;;;;-1.82;100.00;99017.34;15285285;19;20018;-84
2023/04/05 04:07:32;;;;;;;4.45;2.30;;;;;;;-1.84;100.00;99021.00;15287915;19;20014;-84
2023/04/05 04:13:03;;;;;;;6.55;2.60;;;;;;;-1.80;100.00;99020.78;15294366;19;20075;-85
2023/04/05 04:18:35;;;;;;;4.10;2.70;;;;;;;-1.80;100.00;99015.50;15294032;19;20604;-85
2023/04/05 04:24:26;;;;;;;4.53;2.60;;;;;;;-1.81;100.00;99027.00;15303199;19;20043;-85
2023/04/05 04:30:11;;;;;;;5.43;2.60;;;;;;;-1.83;100.00;99020.91;15295945;19;20010;-85
2023/04/05 04:35:53;;;;;;;2.85;2.30;;;;;;;-1.79;100.00;99026.91;15302144;19;20017;-85
2023/04/05 04:41:37;;;;;;;3.83;2.40;;;;;;;-1.80;100.00;99020.78;15280493;19;20022;-43
2023/04/05 04:47:22;;;;;;;4.03;2.67;;;;;;;-1.80;100.00;99025.19;15277717;19;20023;-46
2023/04/05 04:53:01;;;;;;;3.80;2.80;;;;;;;-1.81;100.00;99029.63;15283046;19;20494;-44
2023/04/05 04:58:26;;;;;;;3.38;2.60;;;;;;;-1.78;100.00;99018.06;15279950;19;20023;-43
2023/04/05 05:03:53;;;;;;;2.92;2.63;;;;;;;-1.78;100.00;99013.66;15276475;19;20745;-43
2023/04/05 05:09:22;;;;;;;4.32;2.80;;;;;;;-1.77;100.00;99025.06;15277262;19;20022;-45
2023/04/05 05:14:48;;;;;;;3.88;2.70;;;;;;;-1.68;100.00;99013.22;15282101;19;20037;-44
2023/04/05 05:20:14;;;;;;;5.03;2.55;;;;;;;-1.75;100.00;99033.78;15281062;19;20434;-43
2023/04/05 05:25:41;;;;;;;3.58;2.58;;;;;;;-1.75;100.00;99017.94;15279899;19;20022;-45
2023/04/05 05:31:06;;;;;;;3.47;2.42;;;;;;;-1.70;100.00;99026.50;15279543;19;20006;-44
2023/04/05 05:36:31;;;;;;;4.28;2.40;;;;;;;-1.68;100.00;99019.34;15273503;19;20018;-45
2023/04/05 05:42:00;;;;;;;3.67;2.45;;;;;;;-1.62;100.00;99013.81;15277715;19;20018;-46
2023/04/05 05:47:25;;;;;;;3.88;2.30;;;;;;;-1.57;100.00;99009.16;15279015;19;20010;-47
2023/04/05 05:52:50;;;;;;;5.07;2.40;;;;;;;-1.50;100.00;99014.19;15278582;19;20070;-45
2023/04/05 05:58:21;;;;;;;2.88;2.13;;;;;;;-1.46;100.00;99015.72;15275034;19;20019;-45
2023/04/05 06:03:46;;;;;;;4.75;2.00;;;;;;;-1.43;100.00;99012.97;15277106;19;20610;-48
2023/04/05 06:09:04;;;;;;;4.05;2.10;;;;;;;-1.41;100.00;99011.94;15269001;19;20054;-45
2023/04/05 06:14:31;;;;;;;3.40;2.10;;;;;;;-1.32;100.00;99008.03;15278768;19;20479;-44
2023/04/05 06:19:56;;;;;;;4.88;2.20;;;;;;;-1.30;100.00;99014.09;15278362;19;20029;-47
2023/04/05 06:25:20;;;;;;;3.85;2.40;;;;;;;-1.24;100.00;99012.97;15277192;19;20025;-45
2023/04/05 06:30:47;;;;;;;5.90;2.60;;;;;;;-1.10;100.00;99018.47;15274389;19;20039;-43
2023/04/05 06:36:13;;;;;;;3.35;2.50;;;;;;;-1.04;100.00;99014.66;14765574;19;10000333;-44
2023/04/05 06:41:44;;;;;;;4.00;2.28;;;;;;;-0.91;100.00;99008.78;15267063;19;20014;-44
2023/04/05 06:47:14;;;;;;;4.90;2.25;;;;;;;-0.69;100.00;99013.88;15270690;19;20435;-48
2023/04/05 06:52:40;;;;;;;5.07;2.40;;;;;;;-0.56;100.00;99014.13;15275540;19;20025;-47
2023/04/05 06:58:06;;;;;;;3.58;2.53;;;;;;;-0.26;100.00;99014.38;15272989;19;20026;-43
2023/04/05 07:03:33;;;;;;;3.08;2.42;;;;;;;-0.16;100.00;99017.41;15275710;19;20014;-44
2023/04/05 07:08:59;;;;;;;3.97;2.25;;;;;;;-0.02;100.00;99014.91;15268485;19;20045;-45
2023/04/05 07:14:23;;;;;;;3.05;2.00;;;;;;;0.07;100.00;99007.41;15260233;19;20033;-44
2023/04/05 07:19:57;;;;;;;5.35;2.30;;;;;;;0.22;100.00;99006.59;15256088;19;20029;-44
2023/04/05 07:25:22;;;;;;;3.97;2.08;;;;;;;0.43;100.00;99007.25;15270953;19;20082;-44
2023/04/05 07:30:46;;;;;;;2.88;2.10;;;;;;;0.67;100.00;99006.00;15272333;19;20446;-49
2023/04/05 07:36:14;;;;;;;2.80;2.13;;;;;;;0.90;100.00;98999.44;15278133;19;20042;-45
2023/04/05 07:41:38;;;;;;;4.38;2.00;;;;;;;1.04;100.00;98998.66;15274558;19;20375;-44
2023/04/05 07:47:03;;;;;;;3.42;2.10;;;;;;;1.19;100.00;98997.78;15266239;19;20090;-44
2023/04/05 07:52:30;;;;;;;4.65;2.25;;;;;;;1.37;100.00;99000.31;15270611;19;20487;-44
2023/04/05 07:57:55;;;;;;;3.75;2.30;;;;;;;1.58;100.00;99000.03;15281252;19;20462;-44
2023/04/05 08:03:19;;;;;;;3.25;2.13;;;;;;;1.75;100.00;98999.88;15287969;19;20091;-45
2023/04/05 08:08:48;;;;;;;5.05;2.40;;;;;;;1.88;100.00;99000.00;15281199;19;20018;-44
2023/04/05 08:14:12;;;;;;;3.80;2.22;;;;;;;1.91;100.00;99001.63;15284205;19;20015;-46
2023/04/05 08:19:43;;;;;;;3.17;2.10;;;;;;;2.03;100.00;99000.88;15277038;19;20025;-46
2023/04/05 08:25:12;;;;;;;3.97;2.22;;;;;;;2.10;100.00;98991.56;15285928;19;20022;-49
2023/04/05 08:30:37;;;;;;;4.00;2.30;;;;;;;2.31;100.00;98992.06;15283178;19;20018;-48
2023/04/05 08:36:06;;;;;;;4.28;2.28;;;;;;;2.44;100.00;98986.00;15283779;19;20018;-44
2023/04/05 08:41:42;;;;;;;4.70;1.75;;;;;;;2.70;100.00;98981.69;15285163;19;20018;-50
2023/04/05 08:47:07;;;;;;;3.85;1.90;;;;;;;2.87;100.00;98985.09;15287420;19;20014;-44
2023/04/05 08:52:31;;;;;;;4.38;1.90;;;;;;;3.07;100.00;98979.31;15280555;19;20021;-44
2023/04/05 08:58:03;;;;;;;4.72;1.95;;;;;;;3.24;100.00;98985.34;15279598;19;20082;-44
2023/04/05 09:03:31;;;;;;;2.53;1.80;;;;;;;3.43;100.00;98984.13;15282523;19;20023;-47
2023/04/05 09:08:58;;;;;;;9.13;1.85;;;;;;;3.57;100.00;98975.22;15273915;19;20015;-45
2023/04/05 09:14:25;;;;;;;4.30;1.80;;;;;;;3.78;100.00;98972.91;15282074;19;20025;-47
2023/04/05 09:19:56;;;;;;;3.83;1.80;;;;;;;3.96;100.00;98971.63;15275175;19;20018;-46
2023/04/05 09:25:37;;;;;;;1.97;1.07;;;;;;;3.97;80.61;98972.50;15276739;19;20605;-48
2023/04/05 09:31:05;;;;;;;3.17;1.70;;;;;;;4.16;100.00;98966.75;15281522;19;20011;-50
2023/04/05 09:36:31;;;;;;;2.30;1.40;;;;;;;4.42;100.00;98974.72;15279031;19;20077;-47
2023/04/05 09:42:14;;;;;;;3.60;1.52;;;;;;;4.46;80.08;98966.41;15280273;19;20019;-47
2023/04/05 09:47:41;;;;;;;3.25;1.10;;;;;;;4.74;70.32;98971.59;15278275;19;20022;-46
2023/04/05 09:53:18;;;;;;;2.38;1.20;;;;;;;5.04;75.64;98968.50;15278542;19;20373;-48
2023/04/05 09:58:43;;;;;;;2.03;1.20;;;;;;;5.03;64.69;98968.59;15275755;19;20046;-48
2023/04/05 10:04:10;;;;;;;1.65;1.05;;;;;;;4.98;66.02;98968.09;15279321;19;20458;-51
2023/04/05 10:09:35;;;;;;;1.60;1.27;;;;;;;4.93;63.54;98963.94;15272928;19;20497;-49
2023/04/05 10:14:59;;;;;;;3.60;1.20;;;;;;;5.00;66.34;98971.53;15277314;19;20027;-48
2023/04/05 10:20:36;;;;;;;2.78;1.27;;;;;;;5.15;65.60;98959.69;15276535;19;20031;-48
2023/04/05 10:26:09;;;;;;;2.63;1.30;;;;;;;5.32;64.56;98958.44;15271541;19;20024;-48
2023/04/05 10:31:44;;;;;;;1.50;1.20;;;;;;;5.52;67.43;98956.09;15278011;19;20022;-46
2023/04/05 10:37:19;;;;;;;3.35;1.13;;;;;;;5.57;64.62;98947.72;15276417;19;20023;-46
2023/04/05 10:42:50;;;;;;;2.15;1.23;;;;;;;5.65;65.24;98951.50;15272317;19;20014;-46
2023/04/05 10:48:24;;;;;;;1.20;1.10;;;;;;;5.89;68.44;98941.72;15269902;19;20362;-47
2023/04/05 10:53:53;;;;;;;2.60;1.02;;;;;;;6.09;67.80;98934.88;15275931;19;20646;-46
2023/04/05 10:59:19;;;;;;;3.35;1.38;;;;;;;6.20;67.32;98940.22;15267068;19;20019;-48
2023/04/05 11:04:44;;;;;;;4.50;1.17;;;;;;;6.39;66.58;98936.09;15275154;19;20035;-47
2023/04/05 11:10:19;;;;;;;2.13;1.20;;;;;;;6.08;58.32;98928.66;15267420;19;20094;-47
2023/04/05 11:15:44;;;;;;;1.65;1.35;;;;;;;6.12;64.18;98926.59;15272502;19;20021;-46
2023/04/05 11:21:11;;;;;;;2.13;1.40;;;;;;;5.73;59.95;98916.16;15272786;19;20074;-48
2023/04/05 11:27:00;;;;;;;2.05;1.30;;;;;;;5.61;61.41;98917.97;15272450;19;20692;-45
2023/04/05 11:32:25;;;;;;;1.65;1.20;;;;;;;5.33;57.93;98914.72;15284892;19;20018;-47
2023/04/05 11:38:16;;;;;;;2.05;1.20;;;;;;;5.35;59.40;98911.94;15285935;19;20014;-47
2023/04/05 11:43:44;;;;;;;1.42;1.10;;;;;;;5.51;61.96;98899.09;15290004;19;20021;-48
2023/04/05 11:49:09;;;;;;;1.17;1.08;;;;;;;5.51;63.67;98896.44;15281374;19;20019;-49
2023/04/05 11:54:35;;;;;;;1.60;1.23;;;;;;;5.49;62.32;98901.03;15289403;19;20014;-47
2023/04/05 12:00:03;;;;;;;1.52;1.10;;;;;;;5.60;58.64;98888.66;15277584;19;20019;-47
2023/04/05 12:05:28;;;;;;;3.58;1.20;;;;;;;6.05;59.30;98883.44;15282426;19;20093;-49
2023/04/05 12:10:53;;;;;;;1.70;1.10;;;;;;;6.46;62.17;98881.94;15277279;19;20015;-48
2023/04/05 12:16:20;;;;;;;1.35;1.05;;;;;;;6.88;59.86;98881.25;15284035;19;20023;-46
2023/04/05 12:21:45;;;;;;;2.58;1.40;;;;;;;7.21;57.91;98884.78;15284009;19;20432;-45
2023/04/05 12:27:10;;;;;;;1.98;1.08;;;;;;;7.56;59.85;98872.06;15282865;19;20071;-49
2023/04/05 12:32:44;;;;;;;1.15;0.90;;;;;;;7.83;55.78;98865.28;15285656;19;20047;-49
2023/04/05 12:38:09;;;;;;;3.63;1.05;;;;;;;7.80;53.10;98863.72;15275718;19;20022;-49
2023/04/05 12:43:33;;;;;;;1.10;0.90;;;;;;;8.25;58.66;98850.94;15283674;19;20082;-48
2023/04/05 12:49:01;;;;;;;1.58;1.00;;;;;;;8.51;51.46;98848.66;15278729;19;20046;-46
2023/04/05 12:54:31;;;;;;;1.55;1.10;;;;;;;8.81;53.25;98833.44;15283647;19;20018;-49
2023/04/05 13:00:02;;;;;;;1.08;0.93;;;;;;;8.96;54.92;98836.56;15277878;19;20085;-50
2023/04/05 13:05:31;;;;;;;1.67;1.00;;;;;;;9.39;53.78;98823.66;15285780;19;20392;-45
2023/04/05 13:10:57;;;;;;;1.63;1.08;;;;;;;9.46;54.23;98815.88;15272551;19;20488;-58
2023/04/05 13:16:22;;;;;;;1.98;0.95;;;;;;;9.92;53.67;98816.88;15273508;19;20105;-49
2023/04/05 13:21:49;;;;;;;1.45;0.90;;;;;;;10.10;51.85;98808.88;15275484;19;20405;-47
2023/04/05 13:27:15;;;;;;;3.08;1.10;;;;;;;9.81;47.29;98792.84;15277729;19;20025;-48
2023/04/05 13:32:40;;;;;;;1.15;1.00;;;;;;;9.59;51.79;98788.66;15280736;19;20026;-50
2023/04/05 13:38:07;;;;;;;3.33;1.10;;;;;;;10.13;49.61;98792.41;15275649;19;20285;-49
2023/04/05 13:43:32;;;;;;;1.33;0.90;;;;;;;10.34;49.81;98783.22;15274915;19;20597;-47
2023/04/05 13:48:57;;;;;;;1.45;1.02;;;;;;;10.77;47.43;98786.25;15273752;19;20490;-47
2023/04/05 13:54:24;;;;;;;3.13;1.00;;;;;;;10.94;47.78;98773.75;15277147;19;20467;-46
2023/04/05 13:59:49;;;;;;;1.80;1.10;;;;;;;10.85;47.50;98764.75;15268360;19;20585;-49
2023/04/05 14:05:21;;;;;;;1.13;1.02;;;;;;;11.25;49.59;98765.22;15279262;19;20018;-45
2023/04/05 14:10:48;;;;;;;1.77;1.00;;;;;;;11.51;44.92;98750.91;15271749;19;20046;-49
2023/04/05 14:16:28;;;;;;;1.38;1.00;;;;;;;12.10;48.73;98742.97;15338073;19;20688;-46
2023/04/05 14:21:53;;;;;;;1.10;1.00;;;;;;;12.19;46.92;98746.53;15348853;19;20023;-46
2023/04/05 14:27:21;;;;;;;1.58;1.00;;;;;;;12.31;47.06;98741.69;15347570;19;20102;-50
2023/04/05 14:32:49;;;;;;;2.40;1.20;;;;;;;12.39;43.83;98738.16;15347969;19;20011;-46
2023/04/05 14:38:14;;;;;;;1.10;1.00;;;;;;;12.84;46.54;98738.72;15340680;19;20769;-45
2023/04/05 14:43:40;;;;;;;2.22;0.90;;;;;;;13.30;44.78;98746.34;15346294;19;20014;-49
2023/04/05 14:49:08;;;;;;;1.40;1.00;;;;;;;13.45;47.13;98741.09;15344158;19;20010;-46
2023/04/05 14:54:34;;;;;;;1.23;1.00;;;;;;;12.92;44.00;98739.59;15342083;19;20010;-46
2023/04/05 14:59:59;;;;;;;1.40;1.00;;;;;;;12.69;46.63;98735.84;15335786;19;20066;-46
2023/04/05 15:05:27;;;;;;;2.08;0.88;;;;;;;12.79;44.43;98729.28;15346990;19;20354;-47
2023/04/05 15:10:53;;;;;;;1.15;0.77;;;;;;;13.13;43.60;98724.69;15341732;19;20015;-46
2023/04/05 15:16:26;;;;;;;1.00;0.80;;;;;;;13.64;43.63;98727.16;15332376;19;20017;-48
2023/04/05 15:21:54;;;;;;;1.10;1.00;;;;;;;13.71;41.18;98713.78;15346482;19;20018;-49
2023/04/05 15:27:12;;;;;;;2.53;0.73;;;;;;;13.55;43.28;98715.53;15290008;19;20088;-45
2023/04/05 15:32:38;;;;;;;0.90;0.80;;;;;;;13.16;44.16;98713.53;15284500;19;20014;-47
2023/04/05 15:38:06;;;;;;;1.20;0.90;;;;;;;12.54;42.02;98712.16;15282589;19;20014;-47
2023/04/05 15:43:30;;;;;;;1.90;0.90;;;;;;;12.67;48.13;98710.84;15280144;19;20088;-48
2023/04/05 15:48:55;;;;;;;1.83;0.95;;;;;;;12.61;42.17;98706.94;15271716;19;20019;-46
2023/04/05 15:54:22;;;;;;;1.65;1.00;;;;;;;12.19;48.29;98708.72;15276845;19;20043;-46
2023/04/05 15:59:48;;;;;;;1.80;0.90;;;;;;;11.77;47.80;98714.97;15268889;19;20069;-47
2023/04/05 16:05:15;;;;;;;1.38;0.88;;;;;;;11.59;48.29;98713.19;15279979;19;20025;-49
2023/04/05 16:10:43;;;;;;;2.05;1.00;;;;;;;11.27;46.87;98717.38;15279797;19;20084;-48
2023/04/05 16:16:08;;;;;;;1.88;0.90;;;;;;;11.37;47.91;98710.03;15269753;19;20014;-48
2023/04/05 16:21:53;;;;;;;1.65;0.90;;;;;;;11.52;47.99;98707.59;15272831;19;20521;-46
2023/04/05 16:27:21;;;;;;;2.03;1.00;;;;;;;11.08;46.51;98711.19;15276309;19;20044;-46
2023/04/05 16:32:47;;;;;;;1.73;1.00;;;;;;;11.09;46.07;98707.50;15275878;19;20046;-51
2023/04/05 16:38:11;;;;;;;3.78;1.10;;;;;;;11.08;46.14;98707.63;15271340;19;20031;-49
2023/04/05 16:43:40;;;;;;;1.63;1.10;;;;;;;10.95;44.82;98705.38;15278718;19;20010;-48
2023/04/05 16:49:05;;;;;;;3.83;1.00;;;;;;;10.58;46.37;98704.56;15276177;19;20023;-49
2023/04/05 16:54:31;;;;;;;1.42;0.98;;;;;;;10.60;48.23;98713.31;15269074;19;20102;-45
2023/04/05 16:59:58;;;;;;;0.95;0.70;;;;;;;10.78;49.29;98704.38;15273078;19;20034;-45
2023/04/05 17:05:23;;;;;;;1.67;1.00;;;;;;;10.79;49.50;98703.38;15277934;19;20092;-44
2023/04/05 17:10:47;;;;;;;4.18;1.10;;;;;;;10.27;48.48;98710.28;15278384;19;20035;-44
2023/04/05 17:16:21;;;;;;;1.15;1.00;;;;;;;9.84;49.08;98701.88;15272524;19;20092;-47
2023/04/05 17:21:47;;;;;;;2.80;1.08;;;;;;;9.08;48.80;98708.25;15275529;19;20106;-47
2023/04/05 17:27:13;;;;;;;2.40;1.10;;;;;;;8.67;51.29;98707.59;15271007;19;20100;-44
2023/04/05 17:32:41;;;;;;;1.83;1.00;;;;;;;8.10;49.68;98717.16;15276643;19;20084;-45
2023/04/05 17:38:06;;;;;;;1.15;1.00;;;;;;;7.73;53.38;98709.69;15272590;19;20018;-46
2023/04/05 17:43:32;;;;;;;1.10;1.00;;;;;;;7.29;52.03;98707.25;15273797;19;20029;-43
2023/04/05 17:49:00;;;;;;;1.35;1.10;;;;;;;6.86;53.48;98710.97;15272887;19;20014;-43
2023/04/05 17:54:25;;;;;;;2.45;1.08;;;;;;;6.54;54.00;98706.47;15273584;19;20625;-44
2023/04/05 17:59:51;;;;;;;3.35;1.17;;;;;;;6.17;55.40;98711.22;15267499;19;20377;-43
2023/04/05 18:05:19;;;;;;;2.75;1.27;;;;;;;5.78;55.06;98710.81;15275686;19;20022;-46
2023/04/05 18:10:44;;;;;;;1.85;1.20;;;;;;;5.52;56.47;98719.09;15273643;19;20035;-44
2023/04/05 18:16:15;;;;;;;1.90;1.20;;;;;;;5.24;56.38;98717.75;15268936;19;20031;-44
2023/04/05 18:21:43;;;;;;;1.63;1.00;;;;;;;5.17;59.14;98722.72;15269822;19;20098;-44
2023/04/05 18:27:08;;;;;;;2.17;1.30;;;;;;;5.08;63.02;98734.09;15272629;19;21094;-47
2023/04/05 18:32:33;;;;;;;1.77;1.40;;;;;;;4.82;62.11;98736.13;15270654;19;20654;-44
2023/04/05 18:38:00;;;;;;;2.03;1.50;;;;;;;4.67;64.05;98747.00;15271722;19;20043;-43
2023/04/05 18:43:25;;;;;;;1.95;1.50;;;;;;;4.51;64.47;98749.97;15270731;19;20019;-44
2023/04/05 18:48:53;;;;;;;2.22;1.45;;;;;;;4.44;66.39;98760.22;15267945;19;20128;-46
2023/04/05 18:54:21;;;;;;;2.83;1.45;;;;;;;4.37;66.75;98760.78;15266135;19;20025;-46
2023/04/05 18:59:45;;;;;;;2.47;1.30;;;;;;;4.32;70.66;98753.97;15272191;19;20035;-44
2023/04/05 19:05:11;;;;;;;1.88;1.48;;;;;;;4.28;73.30;98763.19;15282264;19;20280;-45
2023/04/05 19:10:41;;;;;;;3.47;1.63;;;;;;;4.25;77.54;98767.88;15283845;19;20356;-43
2023/04/05 19:16:16;;;;;;;5.30;2.10;;;;;;;4.27;78.46;98766.81;15282295;19;20039;-81
2023/04/05 19:21:41;;;;;;;2.63;1.90;;;;;;;4.24;81.08;98767.03;15352667;19;20014;-82
2023/04/05 19:27:10;;;;;;;3.53;1.90;;;;;;;4.20;82.29;98765.53;15373892;19;20029;-81
2023/04/05 19:32:35;;;;;;;3.90;1.95;;;;;;;4.18;82.24;98767.47;15337036;19;20021;-81
2023/04/05 19:38:00;;;;;;;2.45;1.60;;;;;;;4.19;85.27;98769.16;15368376;19;20006;-80
2023/04/05 19:49:25;;;;;;;2.03;1.83;;;;;;;4.05;100.00;98777.34;15376695;19;20006;-81
2023/04/05 19:54:53;;;;;;;2.30;1.90;;;;;;;3.96;100.00;98770.84;15370820;19;20021;-81
2023/04/05 20:00:35;;;;;;;2.25;1.80;;;;;;;3.78;100.00;98762.38;15343997;19;20082;-80
2023/04/05 20:06:12;;;;;;;2.40;1.73;;;;;;;3.76;100.00;98758.97;15310736;19;20475;-80
2023/04/05 20:11:41;;;;;;;3.42;1.77;;;;;;;3.76;98.14;98761.63;15304934;19;20021;-81
2023/04/05 20:17:36;;;;;;;3.38;2.00;;;;;;;3.79;100.00;98756.91;15299946;19;20022;-81
2023/04/05 20:23:01;;;;;;;4.93;1.75;;;;;;;3.79;99.87;98745.41;15302381;19;20015;-81
2023/04/05 20:28:52;;;;;;;4.28;1.77;;;;;;;3.78;96.46;98743.72;15303282;19;20019;-79
2023/04/05 20:34:23;;;;;;;2.10;1.70;;;;;;;3.73;98.84;98728.06;15296830;19;20014;-80
2023/04/05 20:39:49;;;;;;;2.00;1.50;;;;;;;3.72;99.24;98734.34;15294408;19;20020;-80
2023/04/05 20:45:43;;;;;;;3.92;1.70;;;;;;;3.75;95.98;98733.28;15297675;19;20078;-80
2023/04/05 20:51:09;;;;;;;1.80;1.70;;;;;;;3.69;100.00;98732.75;15272234;19;20026;-79
2023/04/05 20:56:35;;;;;;;1.88;1.50;;;;;;;3.76;100.00;98729.66;15292518;19;20021;-81
2023/04/05 21:02:02;;;;;;;2.53;1.70;;;;;;;3.89;100.00;98727.78;15293806;19;20021;-81
2023/04/05 21:07:28;;;;;;;2.10;1.50;;;;;;;3.81;99.50;98723.03;15304538;19;20018;-85
2023/04/05 21:12:52;;;;;;;3.10;1.50;;;;;;;3.84;100.00;98721.94;15304455;19;20027;-80
2023/04/05 21:18:21;;;;;;;2.70;1.88;;;;;;;3.80;100.00;98715.16;15292167;19;20010;-80
2023/04/05 21:23:46;;;;;;;2.10;1.65;;;;;;;3.73;100.00;98729.84;15292184;19;20028;-81
2023/04/05 21:29:12;;;;;;;2.53;1.70;;;;;;;3.66;100.00;98714.31;15294988;19;20030;-80
2023/04/05 21:34:40;;;;;;;5.40;1.75;;;;;;;3.62;100.00;98715.50;15298575;19;20545;-80
2023/04/05 21:40:10;;;;;;;2.25;1.60;;;;;;;3.57;100.00;98712.31;15290807;19;20036;-80
2023/04/05 21:45:35;;;;;;;2.97;1.83;;;;;;;3.42;100.00;98710.75;15287591;19;20010;-80
2023/04/05 21:51:04;;;;;;;1.98;1.60;;;;;;;3.35;100.00;98707.66;15290925;19;20031;-80
2023/04/05 21:56:28;;;;;;;2.15;1.50;;;;;;;3.29;100.00;98708.94;15285362;19;20014;-80
2023/04/05 22:01:53;;;;;;;2.88;1.75;;;;;;;3.28;100.00;98709.91;15289270;19;20025;-80
2023/04/05 22:07:20;;;;;;;4.90;1.80;;;;;;;3.25;100.00;98712.78;15294652;19;20019;-80
2023/04/05 22:12:45;;;;;;;2.13;1.65;;;;;;;3.23;100.00;98720.88;15290367;19;20037;-79
2023/04/05 22:18:10;;;;;;;2.13;1.60;;;;;;;3.23;100.00;98712.06;15284972;19;20014;-79
2023/04/05 22:23:38;;;;;;;2.17;1.60;;;;;;;3.22;100.00;98710.34;15289260;19;20018;-80
2023/04/05 22:29:03;;;;;;;2.40;1.50;;;;;;;3.21;100.00;98711.31;15292134;19;20039;-79
2023/04/05 22:34:28;;;;;;;2.10;1.60;;;;;;;3.23;100.00;98714.72;15300016;19;20030;-80
2023/04/05 22:39:55;;;;;;;2.47;1.80;;;;;;;3.25;100.00;98712.78;15309220;19;20018;-79
2023/04/05 22:45:20;;;;;;;2.95;1.73;;;;;;;3.23;100.00;98704.91;15315731;19;20046;-79
2023/04/05 22:50:45;;;;;;;1.95;1.63;;;;;;;3.18;100.00;98704.34;15305367;19;20025;-79
2023/04/05 23:02:06;;;;;;;2.95;1.90;;;;;;;3.11;100.00;98689.78;15311258;19;19983;-80
2023/04/05 23:07:47;;;;;;;4.50;2.00;;;;;;;3.06;100.00;98683.91;15347886;19;20007;-80
2023/04/05 23:13:12;;;;;;;2.63;1.83;;;;;;;2.99;100.00;98685.31;15369702;19;20026;-81
2023/04/05 23:18:37;;;;;;;4.43;2.00;;;;;;;3.02;100.00;98688.59;15359798;19;20470;-80
2023/04/05 23:24:09;;;;;;;2.88;2.10;;;;;;;3.02;100.00;98683.28;15360713;19;20020;-81
2023/04/05 23:29:33;;;;;;;3.17;1.80;;;;;;;2.99;100.00;98680.88;15357238;19;20009;-80
2023/04/05 23:34:58;;;;;;;2.40;1.83;;;;;;;3.00;100.00;98679.88;15303950;19;20461;-80
2023/04/05 23:40:25;;;;;;;3.55;2.08;;;;;;;2.96;100.00;98673.09;15287988;19;20081;-79
2023/04/05 23:45:50;;;;;;;3.20;1.90;;;;;;;2.90;100.00;98663.72;15288498;19;20425;-79
2023/04/05 23:51:15;;;;;;;3.65;1.88;;;;;;;2.79;100.00;98668.94;15287184;19;20521;-79
2023/04/05 23:56:43;;;;;;;2.22;2.00;;;;;;;2.62;100.00;98659.44;15274707;19;20082;-43
